Time;durP1;ratioP1;P1;durP2;ratioP2;P2;SDS_P1;SDS_P2;PMS_P1;PMS_P2;Temp;Humidity;BMP_temperature;BMP_pressure;BME280_temperature;BME280_humidity;BME280_pressure;Samples;Min_cycle;Max_cycle;Signal;HPM_P1;HPM_P2
2022/04/25 00:00:04;;;;;;;10.70;5.60;;;;;;;;;;5076911;28;20037;-58
2022/04/25 00:02:31;;;;;;;11.77;5.03;;;;;;;;;;5051879;28;20029;-58
2022/04/25 00:04:57;;;;;;;10.98;5.90;;;;;;;;;;5079831;28;20024;-59
2022/04/25 00:07:23;;;;;;;13.77;5.65;;;;;;;;;;5064515;28;20615;-59
2022/04/25 00:09:49;;;;;;;11.00;5.63;;;;;;;;;;5053137;28;20408;-59
2022/04/25 00:12:15;;;;;;;12.05;5.32;;;;;;;;;;5062803;28;20025;-59
2022/04/25 00:14:42;;;;;;;9.32;5.10;;;;;;;;;;5067006;28;20032;-59
2022/04/25 00:17:08;;;;;;;9.23;5.85;;;;;;;;;;5073853;28;20031;-59
2022/04/25 00:19:35;;;;;;;12.05;5.15;;;;;;;;;;5081644;28;20107;-59
2022/04/25 00:22:01;;;;;;;10.27;6.10;;;;;;;;;;5061951;28;20060;-58
2022/04/25 00:24:27;;;;;;;9.27;6.40;;;;;;;;;;5062460;28;20029;-58
2022/04/25 00:26:53;;;;;;;25.30;6.45;;;;;;;;;;5066227;28;20039;-58
2022/04/25 00:29:19;;;;;;;11.65;6.35;;;;;;;;;;5062202;28;20028;-59
2022/04/25 00:31:45;;;;;;;11.25;6.22;;;;;;;;;;5057124;28;20017;-58
2022/04/25 00:34:11;;;;;;;14.85;6.30;;;;;;;;;;5062206;28;20040;-56
2022/04/25 00:36:37;;;;;;;14.20;6.40;;;;;;;;;;5065423;28;20029;-60
2022/04/25 00:39:03;;;;;;;10.30;6.35;;;;;;;;;;5089558;28;20422;-59
2022/04/25 00:41:30;;;;;;;15.00;6.00;;;;;;;;;;5069612;28;20384;-59
2022/04/25 00:43:56;;;;;;;12.48;6.60;;;;;;;;;;5077553;28;20118;-59
2022/04/25 00:46:23;;;;;;;16.80;6.93;;;;;;;;;;5072962;28;20108;-59
2022/04/25 00:48:49;;;;;;;13.88;6.30;;;;;;;;;;5068711;28;20032;-59
2022/04/25 00:51:16;;;;;;;12.63;5.75;;;;;;;;;;5055386;28;20562;-58
2022/04/25 00:53:43;;;;;;;11.98;5.90;;;;;;;;;;5069879;28;20025;-59
2022/04/25 00:56:10;;;;;;;12.35;5.90;;;;;;;;;;5060028;28;20477;-58
2022/04/25 00:58:36;;;;;;;11.38;6.45;;;;;;;;;;5057814;28;20040;-58
2022/04/25 01:01:03;;;;;;;11.50;6.18;;;;;;;;;;5068576;28;20028;-55
2022/04/25 01:03:29;;;;;;;12.27;5.80;;;;;;;;;;5073114;28;20052;-55
2022/04/25 01:05:55;;;;;;;12.27;6.45;;;;;;;;;;5062864;28;20028;-55
2022/04/25 01:08:21;;;;;;;12.80;6.40;;;;;;;;;;5074785;28;20039;-56
2022/04/25 01:10:47;;;;;;;14.68;6.20;;;;;;;;;;5069016;28;20547;-55
2022/04/25 01:13:13;;;;;;;15.30;7.30;;;;;;;;;;5067476;28;20033;-58
2022/04/25 01:15:39;;;;;;;10.73;5.97;;;;;;;;;;5072591;28;20113;-55
2022/04/25 01:18:05;;;;;;;13.23;6.90;;;;;;;;;;5083991;28;20040;-56
2022/04/25 01:20:31;;;;;;;17.83;7.32;;;;;;;;;;5061834;28;20078;-55
2022/04/25 01:27:15;;;;;;;11.73;6.28;;;;;;;;;;5057659;28;20028;-56
2022/04/25 01:28:30;;;;;;;15.48;7.10;;;;;;;;;;5082473;28;20448;-56
2022/04/25 01:30:56;;;;;;;14.02;7.22;;;;;;;;;;5080148;28;20373;-56
2022/04/25 01:33:22;;;;;;;10.15;6.28;;;;;;;;;;5070584;28;20107;-56
2022/04/25 01:35:48;;;;;;;15.15;7.07;;;;;;;;;;5078185;28;20369;-57
2022/04/25 01:38:14;;;;;;;13.32;7.03;;;;;;;;;;5066138;28;20032;-53
2022/04/25 01:40:39;;;;;;;14.27;6.53;;;;;;;;;;5068879;28;20032;-54
2022/04/25 01:43:05;;;;;;;12.63;6.50;;;;;;;;;;5080562;28;20027;-56
2022/04/25 01:45:31;;;;;;;15.23;7.75;;;;;;;;;;5067976;28;20101;-56
2022/04/25 01:47:57;;;;;;;13.93;8.02;;;;;;;;;;5078727;28;20028;-56
2022/04/25 01:50:23;;;;;;;13.13;6.95;;;;;;;;;;5062949;28;20511;-58
2022/04/25 01:52:49;;;;;;;16.58;7.32;;;;;;;;;;5081246;28;20388;-56
2022/04/25 01:55:15;;;;;;;15.23;7.45;;;;;;;;;;5069669;28;20035;-56
2022/04/25 01:57:42;;;;;;;13.15;7.30;;;;;;;;;;5070793;28;20032;-58
2022/04/25 02:00:09;;;;;;;13.63;7.65;;;;;;;;;;5067417;28;20411;-56
2022/04/25 02:02:35;;;;;;;14.88;7.32;;;;;;;;;;5070739;28;20036;-56
2022/04/25 02:05:03;;;;;;;12.60;7.80;;;;;;;;;;5064168;28;20493;-57
2022/04/25 02:07:29;;;;;;;14.68;7.10;;;;;;;;;;5086810;28;20097;-55
2022/04/25 02:09:55;;;;;;;16.70;8.32;;;;;;;;;;5078187;28;20515;-57
2022/04/25 02:12:22;;;;;;;14.30;8.32;;;;;;;;;;5064618;28;20576;-56
2022/04/25 02:14:48;;;;;;;15.25;7.93;;;;;;;;;;5092365;28;20032;-57
2022/04/25 02:17:14;;;;;;;17.77;8.38;;;;;;;;;;5086732;28;20024;-56
2022/04/25 02:19:40;;;;;;;14.38;7.50;;;;;;;;;;5080069;28;20452;-56
2022/04/25 02:22:07;;;;;;;14.93;8.38;;;;;;;;;;5069532;28;20165;-55
2022/04/25 02:24:33;;;;;;;16.98;8.35;;;;;;;;;;5082243;28;20043;-57
2022/04/25 02:26:59;;;;;;;17.80;8.25;;;;;;;;;;5071966;28;20135;-55
2022/04/25 02:29:25;;;;;;;16.75;8.40;;;;;;;;;;5066325;28;20109;-56
2022/04/25 02:31:51;;;;;;;15.75;7.72;;;;;;;;;;5068984;28;20103;-55
2022/04/25 02:34:17;;;;;;;13.30;7.68;;;;;;;;;;5071955;28;20015;-55
2022/04/25 02:36:43;;;;;;;15.25;8.05;;;;;;;;;;5063325;28;20029;-53
2022/04/25 02:39:09;;;;;;;18.02;8.55;;;;;;;;;;5061807;28;20652;-56
2022/04/25 02:41:35;;;;;;;16.02;7.70;;;;;;;;;;5066095;28;20112;-58
2022/04/25 02:44:01;;;;;;;14.55;8.15;;;;;;;;;;5073705;28;20078;-56
2022/04/25 02:46:27;;;;;;;13.18;8.13;;;;;;;;;;5070261;28;20028;-55
2022/04/25 02:48:53;;;;;;;12.07;7.45;;;;;;;;;;5076219;28;20784;-55
2022/04/25 02:51:19;;;;;;;16.38;7.85;;;;;;;;;;5061915;28;20045;-55
2022/04/25 02:53:45;;;;;;;13.30;7.50;;;;;;;;;;5065040;28;20020;-55
2022/04/25 02:56:11;;;;;;;14.15;6.90;;;;;;;;;;5066397;28;20111;-56
2022/04/25 02:58:41;;;;;;;17.15;7.32;;;;;;;;;;5069958;28;20037;-55
2022/04/25 03:01:08;;;;;;;15.82;7.93;;;;;;;;;;5074478;28;20036;-56
2022/04/25 03:03:35;;;;;;;15.70;7.63;;;;;;;;;;5077598;28;20414;-56
2022/04/25 03:06:02;;;;;;;17.90;8.60;;;;;;;;;;5068610;28;20057;-56
2022/04/25 03:08:28;;;;;;;17.70;8.57;;;;;;;;;;5070112;28;20029;-56
2022/04/25 03:10:54;;;;;;;18.10;7.97;;;;;;;;;;5066554;28;20710;-55
2022/04/25 03:13:21;;;;;;;13.88;8.25;;;;;;;;;;5076948;28;20085;-56
2022/04/25 03:15:47;;;;;;;16.40;8.88;;;;;;;;;;5065061;28;20472;-56
2022/04/25 03:18:16;;;;;;;14.80;7.82;;;;;;;;;;5080279;28;20035;-54
2022/04/25 03:20:42;;;;;;;15.23;8.02;;;;;;;;;;5071794;28;20028;-55
2022/04/25 03:23:09;;;;;;;16.05;7.65;;;;;;;;;;5074250;28;20033;-58
2022/04/25 03:25:36;;;;;;;15.88;7.93;;;;;;;;;;5063013;28;20685;-54
2022/04/25 03:28:02;;;;;;;18.05;8.25;;;;;;;;;;5075369;28;20568;-57
2022/04/25 03:30:28;;;;;;;17.45;8.38;;;;;;;;;;5064579;28;20042;-55
2022/04/25 03:32:56;;;;;;;13.50;7.70;;;;;;;;;;5070833;28;20048;-55
2022/04/25 03:35:22;;;;;;;13.95;8.35;;;;;;;;;;5067231;28;20020;-54
2022/04/25 03:37:49;;;;;;;18.48;8.73;;;;;;;;;;5069838;28;20023;-53
2022/04/25 03:40:15;;;;;;;15.73;8.73;;;;;;;;;;5068760;28;20106;-56
2022/04/25 03:42:42;;;;;;;14.05;8.32;;;;;;;;;;5070628;28;20120;-56
2022/04/25 03:45:09;;;;;;;16.92;8.38;;;;;;;;;;5077540;28;20059;-56
2022/04/25 03:47:39;;;;;;;21.48;9.07;;;;;;;;;;5067708;28;20033;-55
2022/04/25 03:50:07;;;;;;;17.23;9.13;;;;;;;;;;5065965;28;20114;-56
2022/04/25 03:52:33;;;;;;;17.80;9.38;;;;;;;;;;5064612;28;20090;-55
2022/04/25 03:57:44;;;;;;;16.15;8.38;;;;;;;;;;5067895;28;20408;-56
2022/04/25 04:00:11;;;;;;;12.27;8.05;;;;;;;;;;5070425;28;20029;-55
2022/04/25 04:02:37;;;;;;;15.68;8.07;;;;;;;;;;5072525;28;20453;-56
2022/04/25 04:05:03;;;;;;;14.43;8.00;;;;;;;;;;5065761;28;20020;-55
2022/04/25 04:07:29;;;;;;;18.73;8.20;;;;;;;;;;5064313;28;20032;-56
2022/04/25 04:09:55;;;;;;;14.00;7.80;;;;;;;;;;5056527;28;20116;-56
2022/04/25 04:12:24;;;;;;;19.20;8.95;;;;;;;;;;5054432;28;20658;-56
2022/04/25 04:14:50;;;;;;;19.63;8.32;;;;;;;;;;5071639;28;20029;-58
2022/04/25 04:17:17;;;;;;;19.55;8.20;;;;;;;;;;5081792;28;20028;-54
2022/04/25 04:19:46;;;;;;;16.77;8.20;;;;;;;;;;5065241;28;20060;-57
2022/04/25 04:22:12;;;;;;;14.50;7.70;;;;;;;;;;5061709;28;20036;-53
2022/04/25 04:24:38;;;;;;;15.13;8.40;;;;;;;;;;5058723;28;20380;-55
2022/04/25 04:27:05;;;;;;;19.50;8.60;;;;;;;;;;5070306;28;20037;-56
2022/04/25 04:29:32;;;;;;;14.52;7.93;;;;;;;;;;5064590;28;20021;-56
2022/04/25 04:32:02;;;;;;;13.10;7.53;;;;;;;;;;5065400;28;20025;-55
2022/04/25 04:34:28;;;;;;;15.88;7.63;;;;;;;;;;5076633;28;20108;-55
2022/04/25 04:36:54;;;;;;;16.63;8.30;;;;;;;;;;5061184;28;20475;-54
2022/04/25 04:39:20;;;;;;;15.70;7.55;;;;;;;;;;5061877;28;20582;-55
2022/04/25 04:41:46;;;;;;;13.43;7.32;;;;;;;;;;5061004;28;20036;-55
2022/04/25 04:44:13;;;;;;;13.73;7.38;;;;;;;;;;5069133;28;20241;-55
2022/04/25 04:46:39;;;;;;;22.77;9.57;;;;;;;;;;5074476;28;20495;-55
2022/04/25 04:49:05;;;;;;;12.40;6.88;;;;;;;;;;5079992;28;20032;-55
2022/04/25 04:51:31;;;;;;;19.83;7.32;;;;;;;;;;5057326;28;20131;-54
2022/04/25 04:54:01;;;;;;;13.85;7.40;;;;;;;;;;5052588;28;20029;-56
2022/04/25 04:56:27;;;;;;;13.10;7.20;;;;;;;;;;5061685;28;20095;-57
2022/04/25 04:58:53;;;;;;;16.30;7.63;;;;;;;;;;5068490;28;20464;-56
2022/04/25 05:01:19;;;;;;;12.93;7.72;;;;;;;;;;5068902;28;20051;-57
2022/04/25 05:03:45;;;;;;;14.40;8.25;;;;;;;;;;5063745;28;20049;-57
2022/04/25 05:06:12;;;;;;;14.18;7.57;;;;;;;;;;5065727;28;20028;-55
2022/04/25 05:08:38;;;;;;;14.00;7.13;;;;;;;;;;5069497;28;20069;-56
2022/04/25 05:11:06;;;;;;;13.70;7.63;;;;;;;;;;5058678;28;20122;-56
2022/04/25 05:13:32;;;;;;;14.77;7.43;;;;;;;;;;5082466;28;20025;-55
2022/04/25 05:15:59;;;;;;;16.38;7.53;;;;;;;;;;5063802;28;20025;-56
2022/04/25 05:18:25;;;;;;;13.10;7.25;;;;;;;;;;5061800;28;20036;-55
2022/04/25 05:20:52;;;;;;;16.90;7.95;;;;;;;;;;5066216;28;20028;-54
2022/04/25 05:23:18;;;;;;;17.85;7.00;;;;;;;;;;5055681;28;20566;-54
2022/04/25 05:25:44;;;;;;;11.88;7.00;;;;;;;;;;5059510;28;20196;-57
2022/04/25 05:28:10;;;;;;;12.32;6.25;;;;;;;;;;5071934;28;20032;-56
2022/04/25 05:30:36;;;;;;;10.80;6.85;;;;;;;;;;5071133;28;20052;-55
2022/04/25 05:33:02;;;;;;;14.80;6.93;;;;;;;;;;5066359;28;20032;-55
2022/04/25 05:35:32;;;;;;;13.23;6.47;;;;;;;;;;5075567;28;20667;-54
2022/04/25 05:37:59;;;;;;;12.30;6.75;;;;;;;;;;5075529;28;20056;-54
2022/04/25 05:40:25;;;;;;;12.30;6.72;;;;;;;;;;5073147;28;20035;-54
2022/04/25 05:42:52;;;;;;;11.80;6.88;;;;;;;;;;5073064;28;20073;-56
2022/04/25 05:45:23;;;;;;;10.70;6.65;;;;;;;;;;5062821;28;20037;-55
2022/04/25 05:47:49;;;;;;;12.15;6.53;;;;;;;;;;5088010;28;20028;-55
2022/04/25 05:53:01;;;;;;;10.10;5.53;;;;;;;;;;5074539;28;20067;-57
2022/04/25 05:55:30;;;;;;;11.13;7.10;;;;;;;;;;5067004;28;20110;-56
2022/04/25 05:57:57;;;;;;;12.02;6.85;;;;;;;;;;5069323;28;20183;-56
2022/04/25 06:00:24;;;;;;;16.00;6.20;;;;;;;;;;5071057;28;20039;-56
2022/04/25 06:02:50;;;;;;;11.57;6.03;;;;;;;;;;5093207;28;20027;-54
2022/04/25 06:05:16;;;;;;;11.48;5.75;;;;;;;;;;5080483;28;20043;-54
2022/04/25 06:07:45;;;;;;;9.07;5.55;;;;;;;;;;5062659;28;20535;-56
2022/04/25 06:10:15;;;;;;;11.88;6.35;;;;;;;;;;5066623;28;20029;-54
2022/04/25 06:12:42;;;;;;;10.27;6.13;;;;;;;;;;5060800;28;20025;-57
2022/04/25 06:15:08;;;;;;;11.30;6.07;;;;;;;;;;5087564;28;20090;-54
2022/04/25 06:17:35;;;;;;;11.27;5.25;;;;;;;;;;5086079;28;20539;-56
2022/04/25 06:20:01;;;;;;;10.35;4.97;;;;;;;;;;5073124;28;20028;-55
2022/04/25 06:22:26;;;;;;;9.15;5.57;;;;;;;;;;5053435;28;20052;-57
2022/04/25 06:24:53;;;;;;;10.85;5.05;;;;;;;;;;5071376;28;20032;-56
2022/04/25 06:27:18;;;;;;;10.75;4.43;;;;;;;;;;5084005;28;20396;-54
2022/04/25 06:29:46;;;;;;;10.25;5.15;;;;;;;;;;5066279;28;20029;-55
2022/04/25 06:32:12;;;;;;;11.18;4.85;;;;;;;;;;5054952;28;20054;-58
2022/04/25 06:34:39;;;;;;;11.50;5.38;;;;;;;;;;5069510;28;20078;-54
2022/04/25 06:37:05;;;;;;;10.98;5.28;;;;;;;;;;5071779;28;20120;-54
2022/04/25 06:39:31;;;;;;;9.60;4.60;;;;;;;;;;5067760;28;20403;-55
2022/04/25 06:41:57;;;;;;;9.40;4.45;;;;;;;;;;5058205;28;20060;-55
2022/04/25 06:44:23;;;;;;;8.27;4.65;;;;;;;;;;5079587;28;20487;-55
2022/04/25 06:46:49;;;;;;;9.18;4.45;;;;;;;;;;5083377;28;20048;-56
2022/04/25 06:49:24;;;;;;;8.07;4.88;;;;;;;;;;5066801;28;20032;-56
2022/04/25 06:51:52;;;;;;;8.52;4.43;;;;;;;;;;5074518;28;20049;-57
2022/04/25 06:54:18;;;;;;;8.85;4.60;;;;;;;;;;5057984;28;20025;-56
2022/04/25 06:56:44;;;;;;;7.93;4.45;;;;;;;;;;5066654;28;20024;-58
2022/04/25 06:59:10;;;;;;;11.35;4.65;;;;;;;;;;5072990;28;20024;-57
2022/04/25 07:01:36;;;;;;;8.20;3.95;;;;;;;;;;5082425;28;20368;-56
2022/04/25 07:04:03;;;;;;;7.75;3.50;;;;;;;;;;5072326;28;20032;-54
2022/04/25 07:06:29;;;;;;;6.20;3.88;;;;;;;;;;5069577;28;20027;-56
2022/04/25 07:08:55;;;;;;;8.07;4.55;;;;;;;;;;5067120;28;20081;-54
2022/04/25 07:11:21;;;;;;;6.18;3.92;;;;;;;;;;5069634;28;20036;-55
2022/04/25 07:13:47;;;;;;;8.07;3.85;;;;;;;;;;5066093;28;20032;-55
2022/04/25 07:16:13;;;;;;;7.70;3.83;;;;;;;;;;5077492;28;20314;-56
2022/04/25 07:18:39;;;;;;;7.43;4.43;;;;;;;;;;5062462;28;20336;-53
2022/04/25 07:29:25;;;;;;;6.97;3.70;;;;;;;;;;5061943;28;20105;-54
2022/04/25 07:31:51;;;;;;;7.18;3.85;;;;;;;;;;5056354;28;20744;-55
2022/04/25 07:34:20;;;;;;;5.95;3.90;;;;;;;;;;5059165;28;20017;-55
2022/04/25 07:36:53;;;;;;;8.90;4.32;;;;;;;;;;5059558;28;20106;-57
2022/04/25 07:39:22;;;;;;;7.72;3.75;;;;;;;;;;5056404;28;20428;-56
2022/04/25 07:41:49;;;;;;;6.50;3.72;;;;;;;;;;5067979;28;20036;-56
2022/04/25 07:44:15;;;;;;;10.30;4.07;;;;;;;;;;5061427;28;20027;-55
2022/04/25 07:46:41;;;;;;;8.10;3.22;;;;;;;;;;5052023;28;20429;-56
2022/04/25 07:49:08;;;;;;;8.35;4.32;;;;;;;;;;5063627;28;20028;-55
2022/04/25 07:51:34;;;;;;;6.15;3.22;;;;;;;;;;5062771;28;20052;-55
2022/04/25 07:54:00;;;;;;;6.72;3.72;;;;;;;;;;5067027;28;20028;-57
2022/04/25 07:56:26;;;;;;;7.47;3.53;;;;;;;;;;5059053;28;20020;-55
2022/04/25 07:58:52;;;;;;;5.82;3.45;;;;;;;;;;5060102;28;20031;-55
2022/04/25 08:01:18;;;;;;;4.93;3.00;;;;;;;;;;5044465;28;20104;-54
2022/04/25 08:03:44;;;;;;;5.22;3.17;;;;;;;;;;5052594;28;20032;-57
2022/04/25 08:06:11;;;;;;;8.07;3.58;;;;;;;;;;5054337;28;20322;-55
2022/04/25 08:08:37;;;;;;;6.82;3.15;;;;;;;;;;5058190;28;20032;-56
2022/04/25 08:11:03;;;;;;;7.95;3.63;;;;;;;;;;5071174;28;20025;-54
2022/04/25 08:18:59;;;;;;;10.32;3.83;;;;;;;;;;5071479;28;20118;-56
2022/04/25 08:21:25;;;;;;;6.32;3.90;;;;;;;;;;5081659;28;20032;-55
2022/04/25 08:23:51;;;;;;;6.82;3.22;;;;;;;;;;5076842;28;20087;-56
2022/04/25 08:26:17;;;;;;;6.35;3.30;;;;;;;;;;5074085;28;20522;-55
2022/04/25 08:28:43;;;;;;;6.80;3.25;;;;;;;;;;5049580;28;20035;-55
2022/04/25 08:31:09;;;;;;;4.60;2.67;;;;;;;;;;5078384;28;20025;-57
2022/04/25 08:33:35;;;;;;;6.40;3.45;;;;;;;;;;5050551;28;20028;-53
2022/04/25 08:36:02;;;;;;;6.57;3.10;;;;;;;;;;5069002;28;20029;-57
2022/04/25 08:38:28;;;;;;;6.72;3.38;;;;;;;;;;5064696;28;20082;-56
2022/04/25 08:40:55;;;;;;;5.13;3.13;;;;;;;;;;5065733;28;20029;-57
2022/04/25 08:43:21;;;;;;;5.10;2.97;;;;;;;;;;5064240;28;20025;-56
2022/04/25 08:45:47;;;;;;;6.90;3.13;;;;;;;;;;5063824;28;20025;-56
2022/04/25 08:48:13;;;;;;;3.85;2.63;;;;;;;;;;5065494;28;20053;-56
2022/04/25 08:50:39;;;;;;;4.10;2.90;;;;;;;;;;5079159;28;20129;-56
2022/04/25 08:53:07;;;;;;;13.95;3.53;;;;;;;;;;5065408;28;20034;-56
2022/04/25 08:55:33;;;;;;;7.63;3.13;;;;;;;;;;5070567;28;20028;-57
2022/04/25 08:58:00;;;;;;;4.72;2.85;;;;;;;;;;5076302;28;20424;-56
2022/04/25 09:00:26;;;;;;;8.13;2.97;;;;;;;;;;5061293;28;20391;-56
2022/04/25 09:02:54;;;;;;;5.20;2.97;;;;;;;;;;5066263;28;20025;-56
2022/04/25 09:05:21;;;;;;;6.47;3.08;;;;;;;;;;5066079;28;20082;-55
2022/04/25 09:07:47;;;;;;;5.40;3.13;;;;;;;;;;5073183;28;20019;-56
2022/04/25 09:10:17;;;;;;;6.80;3.33;;;;;;;;;;5067316;28;20875;-56
2022/04/25 09:12:46;;;;;;;8.57;3.50;;;;;;;;;;5056291;28;20035;-55
2022/04/25 09:15:12;;;;;;;5.03;3.13;;;;;;;;;;5055540;28;20377;-56
2022/04/25 09:17:38;;;;;;;8.15;3.60;;;;;;;;;;5073252;28;20135;-54
2022/04/25 09:20:05;;;;;;;4.47;2.88;;;;;;;;;;5075580;28;20040;-55
2022/04/25 09:22:32;;;;;;;6.10;3.05;;;;;;;;;;5068640;28;20025;-56
2022/04/25 09:25:06;;;;;;;4.45;2.92;;;;;;;;;;5074326;28;20488;-56
2022/04/25 09:27:32;;;;;;;5.97;3.05;;;;;;;;;;5089030;28;20025;-55
2022/04/25 09:30:13;;;;;;;11.63;3.53;;;;;;;;;;5068090;28;20411;-55
2022/04/25 09:32:39;;;;;;;5.07;3.20;;;;;;;;;;5064239;28;20151;-53
2022/04/25 09:35:44;;;;;;;8.32;3.00;;;;;;;;;;5058065;28;20033;-58
2022/04/25 09:38:10;;;;;;;5.97;3.25;;;;;;;;;;5006284;28;20149;-55
2022/04/25 09:40:37;;;;;;;6.07;2.92;;;;;;;;;;5057583;28;20047;-56
2022/04/25 09:43:15;;;;;;;4.38;2.63;;;;;;;;;;5072108;28;20028;-58
2022/04/25 09:45:43;;;;;;;6.38;2.70;;;;;;;;;;5083928;28;20016;-58
2022/04/25 09:48:16;;;;;;;8.30;3.08;;;;;;;;;;5071574;28;20472;-55
2022/04/25 09:50:42;;;;;;;6.45;2.88;;;;;;;;;;5069972;28;20053;-55
2022/04/25 09:53:10;;;;;;;4.90;2.67;;;;;;;;;;5067273;28;20095;-57
2022/04/25 09:55:38;;;;;;;3.70;2.17;;;;;;;;;;5054384;28;20070;-56
2022/04/25 09:58:34;;;;;;;7.32;2.53;;;;;;;;;;5068049;28;20104;-57
2022/04/25 10:01:11;;;;;;;5.18;2.60;;;;;;;;;;5017736;28;20120;-57
2022/04/25 10:03:37;;;;;;;4.53;2.80;;;;;;;;;;5051862;28;20520;-56
2022/04/25 10:06:04;;;;;;;4.35;2.28;;;;;;;;;;5040411;28;20029;-55
2022/04/25 10:08:32;;;;;;;12.50;2.90;;;;;;;;;;5047621;28;20037;-56
2022/04/25 10:10:58;;;;;;;5.43;2.30;;;;;;;;;;5033440;28;20025;-56
2022/04/25 10:13:25;;;;;;;4.45;2.40;;;;;;;;;;5032685;28;20029;-56
2022/04/25 10:15:51;;;;;;;6.00;2.67;;;;;;;;;;5049433;28;20036;-58
2022/04/25 10:18:17;;;;;;;8.85;2.40;;;;;;;;;;5043440;28;20025;-58
2022/04/25 10:20:45;;;;;;;4.10;1.95;;;;;;;;;;5049242;28;20501;-57
2022/04/25 10:23:12;;;;;;;5.32;2.38;;;;;;;;;;5067233;28;20063;-56
2022/04/25 10:25:39;;;;;;;5.40;2.05;;;;;;;;;;5041240;28;20524;-56
2022/04/25 10:28:06;;;;;;;4.07;1.80;;;;;;;;;;5061817;28;20028;-56
2022/04/25 10:30:34;;;;;;;3.97;1.95;;;;;;;;;;5038463;28;20040;-57
2022/04/25 10:33:16;;;;;;;6.18;1.98;;;;;;;;;;5037111;28;20112;-57
2022/04/25 10:35:43;;;;;;;2.80;1.67;;;;;;;;;;5037059;28;20033;-57
2022/04/25 10:44:31;;;;;;;3.92;1.75;;;;;;;;;;5045200;28;20062;-57
2022/04/25 10:47:06;;;;;;;5.45;2.08;;;;;;;;;;5022232;28;20040;-58
2022/04/25 10:49:36;;;;;;;4.95;2.42;;;;;;;;;;5055830;28;20062;-56
2022/04/25 10:52:04;;;;;;;3.72;1.58;;;;;;;;;;5088590;28;20048;-57
2022/04/25 10:54:49;;;;;;;4.97;1.90;;;;;;;;;;5079821;28;20024;-57
2022/04/25 10:57:15;;;;;;;3.53;1.80;;;;;;;;;;5089422;28;20023;-56
2022/04/25 10:59:41;;;;;;;5.35;2.03;;;;;;;;;;5088226;28;20031;-58
2022/04/25 11:02:24;;;;;;;3.22;1.48;;;;;;;;;;5076182;28;20040;-56
2022/04/25 11:05:09;;;;;;;3.97;1.77;;;;;;;;;;5086896;28;20470;-58
2022/04/25 11:07:35;;;;;;;2.83;1.70;;;;;;;;;;5067683;28;20032;-57
2022/04/25 11:10:02;;;;;;;4.05;1.95;;;;;;;;;;5091067;28;20059;-56
2022/04/25 11:13:00;;;;;;;3.13;1.85;;;;;;;;;;5091918;28;20050;-56
2022/04/25 11:15:45;;;;;;;2.97;1.50;;;;;;;;;;5025261;28;20112;-57
2022/04/25 11:18:23;;;;;;;3.05;1.65;;;;;;;;;;5069444;28;20025;-57
2022/04/25 11:20:58;;;;;;;7.40;2.10;;;;;;;;;;5090470;28;20120;-59
2022/04/25 11:23:30;;;;;;;4.18;1.80;;;;;;;;;;5061030;28;21641;-56
2022/04/25 11:25:56;;;;;;;6.95;1.77;;;;;;;;;;5064871;28;20016;-57
2022/04/25 11:28:22;;;;;;;3.33;2.00;;;;;;;;;;5063238;28;20038;-57
2022/04/25 11:31:07;;;;;;;2.95;1.30;;;;;;;;;;5091179;28;20047;-58
2022/04/25 11:33:46;;;;;;;4.65;1.85;;;;;;;;;;5081139;28;20036;-57
2022/04/25 11:36:13;;;;;;;3.97;1.42;;;;;;;;;;5060890;28;20042;-55
2022/04/25 11:41:24;;;;;;;4.03;1.90;;;;;;;;;;5060102;28;20044;-54
2022/04/25 11:43:50;;;;;;;2.63;1.48;;;;;;;;;;5072232;28;20066;-58
2022/04/25 11:46:17;;;;;;;3.38;1.50;;;;;;;;;;5076245;28;20035;-57
2022/04/25 11:48:43;;;;;;;5.72;2.03;;;;;;;;;;5062042;28;20029;-57
2022/04/25 11:51:09;;;;;;;2.45;1.75;;;;;;;;;;5060789;28;20526;-56
2022/04/25 11:53:35;;;;;;;5.15;2.05;;;;;;;;;;5073817;28;20464;-56
2022/04/25 11:56:14;;;;;;;3.53;1.85;;;;;;;;;;5071412;28;20514;-57
2022/04/25 11:58:41;;;;;;;5.07;1.98;;;;;;;;;;5070451;28;20088;-56
2022/04/25 12:01:09;;;;;;;4.15;1.50;;;;;;;;;;5075698;28;20024;-57
2022/04/25 12:03:36;;;;;;;4.13;1.65;;;;;;;;;;5078155;28;20025;-57
2022/04/25 12:06:12;;;;;;;4.18;2.25;;;;;;;;;;5053234;28;20435;-58
2022/04/25 12:17:08;;;;;;;3.72;1.58;;;;;;;;;;5075034;28;20039;-55
2022/04/25 12:19:35;;;;;;;2.58;1.42;;;;;;;;;;5068404;28;20028;-58
2022/04/25 12:22:05;;;;;;;2.03;1.08;;;;;;;;;;5075893;28;20101;-58
2022/04/25 12:24:31;;;;;;;3.22;1.58;;;;;;;;;;5079063;28;20020;-56
2022/04/25 12:26:57;;;;;;;4.68;1.50;;;;;;;;;;5089864;28;20024;-56
2022/04/25 12:29:23;;;;;;;4.55;1.25;;;;;;;;;;5077996;28;20017;-54
2022/04/25 12:31:49;;;;;;;2.38;1.20;;;;;;;;;;5076194;28;20020;-57
2022/04/25 12:34:16;;;;;;;3.55;1.45;;;;;;;;;;5072337;28;20046;-55
2022/04/25 12:37:00;;;;;;;3.90;1.88;;;;;;;;;;5068382;28;20017;-56
2022/04/25 12:39:27;;;;;;;;;;;;;;;;;;5064365;28;20521;-56
2022/04/25 12:41:56;;;;;;;3.55;1.42;;;;;;;;;;5065781;28;20315;-55
2022/04/25 12:44:22;;;;;;;2.50;1.25;;;;;;;;;;5054258;28;20657;-56
2022/04/25 12:46:52;;;;;;;1.90;1.25;;;;;;;;;;5061383;28;20514;-55
2022/04/25 12:49:20;;;;;;;1.45;0.93;;;;;;;;;;5051962;28;20083;-57
2022/04/25 12:51:52;;;;;;;3.35;1.40;;;;;;;;;;5076597;28;20059;-55
2022/04/25 12:54:20;;;;;;;1.75;1.20;;;;;;;;;;5072429;28;20082;-58
2022/04/25 12:56:47;;;;;;;2.58;1.35;;;;;;;;;;5070080;28;20025;-57
2022/04/25 12:59:13;;;;;;;2.63;1.33;;;;;;;;;;5057368;28;20025;-58
2022/04/25 13:01:39;;;;;;;3.47;1.63;;;;;;;;;;5063338;28;20028;-58
2022/04/25 13:04:06;;;;;;;2.55;1.25;;;;;;;;;;5071399;28;20027;-57
2022/04/25 13:06:32;;;;;;;2.70;1.40;;;;;;;;;;5064203;28;20440;-57
2022/04/25 13:08:58;;;;;;;2.95;1.55;;;;;;;;;;5077424;28;20020;-58
2022/04/25 13:11:24;;;;;;;5.65;1.73;;;;;;;;;;5072611;28;20503;-57
2022/04/25 13:13:53;;;;;;;4.47;2.25;;;;;;;;;;5062159;28;20167;-57
2022/04/25 13:16:18;;;;;;;3.78;1.33;;;;;;;;;;5075251;28;20097;-57
2022/04/25 13:18:45;;;;;;;3.67;1.75;;;;;;;;;;5075475;28;20020;-57
2022/04/25 13:21:13;;;;;;;5.03;1.83;;;;;;;;;;5075836;28;20478;-56
2022/04/25 13:23:39;;;;;;;4.30;1.85;;;;;;;;;;5070743;28;20515;-58
2022/04/25 13:26:05;;;;;;;3.72;1.50;;;;;;;;;;5060237;28;20052;-58
2022/04/25 13:28:31;;;;;;;4.32;1.65;;;;;;;;;;5059098;28;20033;-59
2022/04/25 13:30:57;;;;;;;2.10;1.23;;;;;;;;;;5059357;28;20029;-58
2022/04/25 13:33:23;;;;;;;3.20;1.42;;;;;;;;;;5061459;28;20392;-58
2022/04/25 13:35:49;;;;;;;3.25;1.60;;;;;;;;;;5057708;28;20021;-59
2022/04/25 13:38:15;;;;;;;4.40;1.98;;;;;;;;;;5079993;28;20430;-59
2022/04/25 13:40:41;;;;;;;3.53;1.63;;;;;;;;;;5072876;28;20067;-58
2022/04/25 13:43:09;;;;;;;3.90;1.77;;;;;;;;;;5073883;28;20032;-58
2022/04/25 13:45:35;;;;;;;4.40;1.50;;;;;;;;;;5063107;28;20033;-58
2022/04/25 13:48:01;;;;;;;2.70;1.63;;;;;;;;;;5054167;28;20469;-57
2022/04/25 13:50:27;;;;;;;4.35;2.00;;;;;;;;;;5081301;28;20048;-58
2022/04/25 13:52:53;;;;;;;4.60;1.85;;;;;;;;;;5085379;28;20602;-57
2022/04/25 13:55:20;;;;;;;5.13;1.73;;;;;;;;;;5075799;28;20071;-59
2022/04/25 13:57:46;;;;;;;3.13;1.90;;;;;;;;;;5057401;28;20032;-57
2022/04/25 14:00:12;;;;;;;4.25;1.75;;;;;;;;;;5072894;28;20468;-58
2022/04/25 14:05:24;;;;;;;3.95;1.50;;;;;;;;;;5068836;28;20047;-58
2022/04/25 14:07:50;;;;;;;3.97;1.83;;;;;;;;;;5061775;28;20024;-59
2022/04/25 14:10:16;;;;;;;3.95;1.42;;;;;;;;;;5073826;28;20028;-58
2022/04/25 14:12:42;;;;;;;3.38;1.50;;;;;;;;;;5078529;28;20016;-60
2022/04/25 14:15:09;;;;;;;3.15;1.10;;;;;;;;;;5066912;28;20084;-58
2022/04/25 14:17:35;;;;;;;1.95;1.05;;;;;;;;;;5063095;28;20037;-58
2022/04/25 14:20:02;;;;;;;3.25;1.23;;;;;;;;;;5059790;28;20033;-57
2022/04/25 14:22:29;;;;;;;2.22;1.00;;;;;;;;;;5071347;28;20463;-60
2022/04/25 14:24:54;;;;;;;3.83;1.20;;;;;;;;;;5072884;28;20025;-58
2022/04/25 14:27:20;;;;;;;1.52;1.00;;;;;;;;;;5079489;28;20032;-58
2022/04/25 14:29:46;;;;;;;2.80;0.90;;;;;;;;;;5080046;28;20111;-58
2022/04/25 14:32:13;;;;;;;4.20;1.13;;;;;;;;;;5056383;28;20460;-58
2022/04/25 14:34:39;;;;;;;2.17;1.02;;;;;;;;;;5074631;28;20032;-58
2022/04/25 14:37:05;;;;;;;4.75;0.98;;;;;;;;;;5070652;28;20040;-58
2022/04/25 14:39:33;;;;;;;2.58;0.98;;;;;;;;;;5079371;28;20036;-56
2022/04/25 14:41:59;;;;;;;3.65;1.30;;;;;;;;;;5064094;28;20024;-56
2022/04/25 14:44:25;;;;;;;6.35;1.70;;;;;;;;;;5051022;28;20056;-56
2022/04/25 14:46:52;;;;;;;4.15;1.20;;;;;;;;;;5058908;28;20549;-59
2022/04/25 14:54:20;;;;;;;2.40;1.00;;;;;;;;;;5059306;28;20539;-57
2022/04/25 14:54:48;;;;;;;1.83;0.80;;;;;;;;;;5069939;28;20036;-59
2022/04/25 14:57:14;;;;;;;2.50;1.25;;;;;;;;;;5068533;28;20036;-57
2022/04/25 14:59:40;;;;;;;3.63;1.30;;;;;;;;;;5062691;28;20033;-57
2022/04/25 15:02:06;;;;;;;1.88;0.85;;;;;;;;;;5073851;28;20135;-56
2022/04/25 15:04:32;;;;;;;1.23;0.70;;;;;;;;;;5074629;28;20025;-57
2022/04/25 15:06:58;;;;;;;3.10;0.98;;;;;;;;;;5056795;28;20025;-57
2022/04/25 15:09:25;;;;;;;1.50;0.85;;;;;;;;;;5059691;28;20025;-56
2022/04/25 15:11:51;;;;;;;2.13;0.60;;;;;;;;;;5062540;28;20024;-56
2022/04/25 15:14:17;;;;;;;1.85;0.90;;;;;;;;;;5055854;28;20021;-57
2022/04/25 15:16:43;;;;;;;1.35;0.77;;;;;;;;;;5072512;28;20070;-56
2022/04/25 15:19:09;;;;;;;1.48;0.90;;;;;;;;;;5060641;28;20044;-57
2022/04/25 15:21:35;;;;;;;4.07;0.90;;;;;;;;;;5066185;28;20029;-59
2022/04/25 15:24:01;;;;;;;2.33;0.90;;;;;;;;;;5040260;28;20032;-58